TimeMST,TemperatureF,Dew PointF,Humidity,Sea Level PressureIn,VisibilityMPH,Wind Direction,Wind SpeedMPH,Gust SpeedMPH,PrecipitationIn,Events,Conditions,WindDirDegrees,DateUTC
12:53 AM,12.2,3.2,67,29.89,10.0,NW,13.8,-,N/A,,Clear,310,2013-01-12 07:53:00
1:53 AM,10.9,3.0,70,30.04,10.0,WNW,12.7,-,N/A,,Clear,300,2013-01-12 08:53:00
2:53 AM,9.0,1.9,73,30.08,10.0,WNW,10.4,-,N/A,,Clear,290,2013-01-12 09:53:00
3:53 AM,9.0,1.0,70,30.07,10.0,NW,13.8,-,N/A,,Clear,310,2013-01-12 10:53:00
4:53 AM,9.0,-0.0,67,30.08,10.0,NW,13.8,-,N/A,,Clear,320,2013-01-12 11:53:00
5:53 AM,6.1,-0.9,73,30.12,10.0,NW,11.5,-,N/A,,Clear,310,2013-01-12 12:53:00
6:53 AM,7.0,-0.9,70,30.13,10.0,NW,13.8,-,N/A,,Clear,320,2013-01-12 13:53:00
7:53 AM,10.0,-0.0,64,30.16,10.0,NW,15.0,23.0,N/A,,Clear,310,2013-01-12 14:53:00
8:53 AM,12.0,1.9,64,30.19,10.0,NNW,18.4,23.0,N/A,,Clear,330,2013-01-12 15:53:00
9:53 AM,14.0,3.0,62,30.21,10.0,NNW,19.6,27.6,N/A,,Clear,340,2013-01-12 16:53:00
10:53 AM,15.1,5.0,64,30.21,10.0,North,17.3,-,N/A,,Clear,350,2013-01-12 17:53:00
11:53 AM,16.0,5.0,62,30.18,10.0,NNW,17.3,-,N/A,,Clear,340,2013-01-12 18:53:00
12:53 PM,17.1,6.1,62,30.16,10.0,NNW,16.1,-,N/A,,Clear,330,2013-01-12 19:53:00
1:53 PM,17.1,6.1,62,30.17,10.0,North,18.4,-,N/A,,Partly Cloudy,350,2013-01-12 20:53:00
2:53 PM,17.1,5.0,59,30.17,10.0,North,16.1,25.3,N/A,,Clear,350,2013-01-12 21:53:00
3:53 PM,15.1,3.9,61,30.20,10.0,NNW,19.6,-,N/A,,Partly Cloudy,340,2013-01-12 22:53:00
4:53 PM,12.0,3.9,70,30.22,10.0,NNW,12.7,-,N/A,,Clear,340,2013-01-12 23:53:00
6:53 PM,9.0,1.9,73,30.28,10.0,NNW,8.1,-,N/A,,Clear,330,2013-01-13 01:53:00
7:53 PM,7.0,1.0,77,30.27,10.0,NW,6.9,-,N/A,,Clear,320,2013-01-13 02:53:00
8:53 PM,6.1,-0.0,76,30.29,10.0,NW,8.1,-,N/A,,Clear,310,2013-01-13 03:53:00
9:53 PM,5.0,-0.9,76,30.27,10.0,NW,9.2,-,N/A,,Clear,310,2013-01-13 04:53:00
10:53 PM,5.0,-0.9,76,30.28,10.0,NW,9.2,-,N/A,,Clear,310,2013-01-13 05:53:00
11:53 PM,3.0,-2.0,80,30.28,10.0,WNW,6.9,-,N/A,,Clear,300,2013-01-13 06:53:00